sensor_id;sensor_type;location;lat;lon;timestamp;P1;durP1;ratioP1;P2;durP2;ratioP2
49123;SDS011;48506;48.202;16.274;2023-07-13T00:01:30;4.40;;;2.63;;
49123;SDS011;48506;48.202;16.274;2023-07-13T00:03:57;4.53;;;2.80;;
49123;SDS011;48506;48.202;16.274;2023-07-13T00:06:23;3.03;;;2.28;;
49123;SDS011;48506;48.202;16.274;2023-07-13T00:08:49;2.53;;;2.33;;
49123;SDS011;48506;48.202;16.274;2023-07-13T00:11:15;5.10;;;2.55;;
49123;SDS011;48506;48.202;16.274;2023-07-13T00:13:42;4.70;;;2.30;;
49123;SDS011;48506;48.202;16.274;2023-07-13T00:16:10;3.70;;;2.40;;
49123;SDS011;48506;48.202;16.274;2023-07-13T00:18:39;3.40;;;2.45;;
49123;SDS011;48506;48.202;16.274;2023-07-13T00:21:05;3.30;;;2.28;;
49123;SDS011;48506;48.202;16.274;2023-07-13T00:23:32;10.93;;;3.35;;
49123;SDS011;48506;48.202;16.274;2023-07-13T00:25:59;6.95;;;2.55;;
49123;SDS011;48506;48.202;16.274;2023-07-13T00:28:27;4.18;;;2.78;;
49123;SDS011;48506;48.202;16.274;2023-07-13T00:30:53;1.80;;;1.33;;
49123;SDS011;48506;48.202;16.274;2023-07-13T00:33:19;4.43;;;1.80;;
49123;SDS011;48506;48.202;16.274;2023-07-13T00:35:45;4.00;;;2.42;;
49123;SDS011;48506;48.202;16.274;2023-07-13T00:38:11;6.07;;;2.13;;
49123;SDS011;48506;48.202;16.274;2023-07-13T00:40:37;2.95;;;2.00;;
49123;SDS011;48506;48.202;16.274;2023-07-13T00:43:04;4.07;;;2.00;;
49123;SDS011;48506;48.202;16.274;2023-07-13T00:48:11;4.72;;;2.70;;
49123;SDS011;48506;48.202;16.274;2023-07-13T00:51:00;2.40;;;1.48;;
49123;SDS011;48506;48.202;16.274;2023-07-13T00:53:27;1.83;;;1.40;;
49123;SDS011;48506;48.202;16.274;2023-07-13T00:55:56;2.87;;;1.60;;
49123;SDS011;48506;48.202;16.274;2023-07-13T00:58:23;2.72;;;1.75;;
49123;SDS011;48506;48.202;16.274;2023-07-13T01:00:51;1.83;;;1.38;;
49123;SDS011;48506;48.202;16.274;2023-07-13T01:03:17;8.98;;;1.77;;
49123;SDS011;48506;48.202;16.274;2023-07-13T01:05:44;1.50;;;1.20;;
49123;SDS011;48506;48.202;16.274;2023-07-13T01:08:13;2.17;;;1.63;;
49123;SDS011;48506;48.202;16.274;2023-07-13T01:10:39;1.75;;;1.25;;
49123;SDS011;48506;48.202;16.274;2023-07-13T01:13:09;3.40;;;1.27;;
49123;SDS011;48506;48.202;16.274;2023-07-13T01:15:40;4.35;;;1.60;;
49123;SDS011;48506;48.202;16.274;2023-07-13T01:18:31;3.15;;;1.40;;
49123;SDS011;48506;48.202;16.274;2023-07-13T01:23:25;1.58;;;1.08;;
49123;SDS011;48506;48.202;16.274;2023-07-13T01:25:52;1.80;;;1.55;;
49123;SDS011;48506;48.202;16.274;2023-07-13T01:28:20;2.53;;;2.28;;
49123;SDS011;48506;48.202;16.274;2023-07-13T01:30:47;2.40;;;1.40;;
49123;SDS011;48506;48.202;16.274;2023-07-13T01:33:14;0.98;;;0.85;;
49123;SDS011;48506;48.202;16.274;2023-07-13T01:35:43;1.63;;;1.00;;
49123;SDS011;48506;48.202;16.274;2023-07-13T01:38:11;4.53;;;1.40;;
49123;SDS011;48506;48.202;16.274;2023-07-13T01:40:39;1.30;;;1.20;;
49123;SDS011;48506;48.202;16.274;2023-07-13T01:43:05;2.05;;;1.23;;
49123;SDS011;48506;48.202;16.274;2023-07-13T01:45:31;3.83;;;1.20;;
49123;SDS011;48506;48.202;16.274;2023-07-13T01:47:57;2.05;;;1.70;;
49123;SDS011;48506;48.202;16.274;2023-07-13T01:50:24;3.08;;;1.20;;
49123;SDS011;48506;48.202;16.274;2023-07-13T01:52:51;3.15;;;1.08;;
49123;SDS011;48506;48.202;16.274;2023-07-13T01:55:17;1.73;;;1.10;;
49123;SDS011;48506;48.202;16.274;2023-07-13T01:57:45;1.67;;;1.02;;
49123;SDS011;48506;48.202;16.274;2023-07-13T02:00:12;2.10;;;1.17;;
49123;SDS011;48506;48.202;16.274;2023-07-13T02:02:38;1.45;;;1.20;;
49123;SDS011;48506;48.202;16.274;2023-07-13T02:05:05;1.35;;;1.13;;
49123;SDS011;48506;48.202;16.274;2023-07-13T02:07:31;2.45;;;1.30;;
49123;SDS011;48506;48.202;16.274;2023-07-13T02:09:57;2.60;;;1.38;;
49123;SDS011;48506;48.202;16.274;2023-07-13T02:12:23;1.90;;;1.33;;
49123;SDS011;48506;48.202;16.274;2023-07-13T02:14:49;2.65;;;1.67;;
49123;SDS011;48506;48.202;16.274;2023-07-13T02:17:15;2.28;;;1.20;;
49123;SDS011;48506;48.202;16.274;2023-07-13T02:19:41;2.25;;;1.30;;
49123;SDS011;48506;48.202;16.274;2023-07-13T02:22:07;3.75;;;1.73;;
49123;SDS011;48506;48.202;16.274;2023-07-13T02:24:33;2.47;;;1.50;;
49123;SDS011;48506;48.202;16.274;2023-07-13T02:26:58;3.13;;;1.52;;
49123;SDS011;48506;48.202;16.274;2023-07-13T02:29:24;3.00;;;1.63;;
49123;SDS011;48506;48.202;16.274;2023-07-13T02:31:50;3.60;;;1.70;;
49123;SDS011;48506;48.202;16.274;2023-07-13T02:34:16;2.40;;;1.40;;
49123;SDS011;48506;48.202;16.274;2023-07-13T02:36:42;2.47;;;1.63;;
49123;SDS011;48506;48.202;16.274;2023-07-13T02:39:08;3.03;;;1.35;;
49123;SDS011;48506;48.202;16.274;2023-07-13T02:41:37;1.63;;;1.40;;
49123;SDS011;48506;48.202;16.274;2023-07-13T02:44:03;6.35;;;1.90;;
49123;SDS011;48506;48.202;16.274;2023-07-13T02:46:30;2.67;;;1.65;;
49123;SDS011;48506;48.202;16.274;2023-07-13T02:48:57;3.15;;;1.65;;
49123;SDS011;48506;48.202;16.274;2023-07-13T02:51:22;1.75;;;1.63;;
49123;SDS011;48506;48.202;16.274;2023-07-13T02:53:48;3.55;;;1.80;;
49123;SDS011;48506;48.202;16.274;2023-07-13T02:56:14;4.93;;;1.80;;
49123;SDS011;48506;48.202;16.274;2023-07-13T02:58:40;2.42;;;1.60;;
49123;SDS011;48506;48.202;16.274;2023-07-13T03:01:08;3.40;;;1.52;;
49123;SDS011;48506;48.202;16.274;2023-07-13T03:03:35;3.28;;;1.95;;
49123;SDS011;48506;48.202;16.274;2023-07-13T03:06:02;2.03;;;1.58;;
49123;SDS011;48506;48.202;16.274;2023-07-13T03:08:30;2.65;;;1.67;;
49123;SDS011;48506;48.202;16.274;2023-07-13T03:11:04;3.45;;;1.90;;
49123;SDS011;48506;48.202;16.274;2023-07-13T03:13:33;3.50;;;1.83;;
49123;SDS011;48506;48.202;16.274;2023-07-13T03:16:00;2.85;;;1.73;;
49123;SDS011;48506;48.202;16.274;2023-07-13T03:18:26;2.08;;;1.65;;
49123;SDS011;48506;48.202;16.274;2023-07-13T03:20:52;2.63;;;1.63;;
49123;SDS011;48506;48.202;16.274;2023-07-13T03:23:19;2.40;;;1.80;;
49123;SDS011;48506;48.202;16.274;2023-07-13T03:25:46;5.40;;;2.30;;
49123;SDS011;48506;48.202;16.274;2023-07-13T03:28:12;3.45;;;2.15;;
49123;SDS011;48506;48.202;16.274;2023-07-13T03:30:38;4.30;;;2.35;;
49123;SDS011;48506;48.202;16.274;2023-07-13T03:33:05;3.55;;;1.85;;
49123;SDS011;48506;48.202;16.274;2023-07-13T03:35:31;2.97;;;2.00;;
49123;SDS011;48506;48.202;16.274;2023-07-13T03:37:58;8.27;;;1.95;;
49123;SDS011;48506;48.202;16.274;2023-07-13T03:40:25;4.50;;;1.95;;
49123;SDS011;48506;48.202;16.274;2023-07-13T03:42:54;3.30;;;2.13;;
49123;SDS011;48506;48.202;16.274;2023-07-13T03:45:20;4.07;;;2.28;;
49123;SDS011;48506;48.202;16.274;2023-07-13T03:47:46;3.53;;;2.17;;
49123;SDS011;48506;48.202;16.274;2023-07-13T03:50:12;3.83;;;2.35;;
49123;SDS011;48506;48.202;16.274;2023-07-13T03:52:39;4.93;;;2.25;;
49123;SDS011;48506;48.202;16.274;2023-07-13T03:55:05;2.97;;;1.90;;
49123;SDS011;48506;48.202;16.274;2023-07-13T03:57:32;5.57;;;2.33;;
49123;SDS011;48506;48.202;16.274;2023-07-13T04:00:00;4.07;;;1.90;;
49123;SDS011;48506;48.202;16.274;2023-07-13T04:02:26;3.83;;;1.85;;
49123;SDS011;48506;48.202;16.274;2023-07-13T04:04:51;2.75;;;2.25;;
49123;SDS011;48506;48.202;16.274;2023-07-13T04:07:18;2.78;;;2.10;;
49123;SDS011;48506;48.202;16.274;2023-07-13T04:09:44;4.88;;;1.92;;
49123;SDS011;48506;48.202;16.274;2023-07-13T04:12:10;6.80;;;2.50;;
49123;SDS011;48506;48.202;16.274;2023-07-13T04:14:37;4.25;;;2.67;;
49123;SDS011;48506;48.202;16.274;2023-07-13T04:17:03;7.30;;;2.65;;
49123;SDS011;48506;48.202;16.274;2023-07-13T04:19:29;3.80;;;2.60;;
49123;SDS011;48506;48.202;16.274;2023-07-13T04:21:55;5.75;;;3.00;;
49123;SDS011;48506;48.202;16.274;2023-07-13T04:24:21;7.38;;;3.00;;
49123;SDS011;48506;48.202;16.274;2023-07-13T04:26:47;6.80;;;3.03;;
49123;SDS011;48506;48.202;16.274;2023-07-13T04:29:12;5.28;;;3.63;;
49123;SDS011;48506;48.202;16.274;2023-07-13T04:31:40;4.70;;;2.75;;
49123;SDS011;48506;48.202;16.274;2023-07-13T04:34:06;4.38;;;3.00;;
49123;SDS011;48506;48.202;16.274;2023-07-13T04:36:32;4.47;;;2.25;;
49123;SDS011;48506;48.202;16.274;2023-07-13T04:38:58;5.35;;;2.35;;
49123;SDS011;48506;48.202;16.274;2023-07-13T04:41:24;3.35;;;2.70;;
49123;SDS011;48506;48.202;16.274;2023-07-13T04:43:50;3.00;;;2.28;;
49123;SDS011;48506;48.202;16.274;2023-07-13T04:46:17;6.72;;;2.58;;
49123;SDS011;48506;48.202;16.274;2023-07-13T04:48:44;3.20;;;2.30;;
49123;SDS011;48506;48.202;16.274;2023-07-13T04:51:10;4.32;;;2.10;;
49123;SDS011;48506;48.202;16.274;2023-07-13T04:53:36;2.65;;;2.00;;
49123;SDS011;48506;48.202;16.274;2023-07-13T04:56:02;4.07;;;2.47;;
49123;SDS011;48506;48.202;16.274;2023-07-13T04:58:30;3.03;;;1.80;;
49123;SDS011;48506;48.202;16.274;2023-07-13T05:01:00;4.78;;;2.15;;
49123;SDS011;48506;48.202;16.274;2023-07-13T05:03:28;4.38;;;2.72;;
49123;SDS011;48506;48.202;16.274;2023-07-13T05:05:57;4.45;;;2.72;;
49123;SDS011;48506;48.202;16.274;2023-07-13T05:08:25;5.80;;;2.72;;
49123;SDS011;48506;48.202;16.274;2023-07-13T05:10:51;5.15;;;3.03;;
49123;SDS011;48506;48.202;16.274;2023-07-13T05:13:18;7.40;;;2.88;;
49123;SDS011;48506;48.202;16.274;2023-07-13T05:15:44;3.65;;;2.13;;
49123;SDS011;48506;48.202;16.274;2023-07-13T05:18:11;3.10;;;2.80;;
49123;SDS011;48506;48.202;16.274;2023-07-13T05:20:37;4.07;;;2.42;;
49123;SDS011;48506;48.202;16.274;2023-07-13T05:23:03;5.13;;;2.53;;
49123;SDS011;48506;48.202;16.274;2023-07-13T05:25:29;4.60;;;2.60;;
49123;SDS011;48506;48.202;16.274;2023-07-13T05:27:55;2.53;;;2.15;;
49123;SDS011;48506;48.202;16.274;2023-07-13T05:30:21;2.85;;;1.85;;
49123;SDS011;48506;48.202;16.274;2023-07-13T05:32:47;4.40;;;2.03;;
49123;SDS011;48506;48.202;16.274;2023-07-13T05:35:13;2.75;;;2.17;;
49123;SDS011;48506;48.202;16.274;2023-07-13T05:37:39;3.50;;;1.90;;
49123;SDS011;48506;48.202;16.274;2023-07-13T05:40:05;4.05;;;2.20;;
49123;SDS011;48506;48.202;16.274;2023-07-13T05:42:32;5.43;;;2.88;;
49123;SDS011;48506;48.202;16.274;2023-07-13T05:44:58;6.07;;;2.17;;
49123;SDS011;48506;48.202;16.274;2023-07-13T05:47:24;2.35;;;2.10;;
49123;SDS011;48506;48.202;16.274;2023-07-13T05:49:50;6.22;;;2.40;;
49123;SDS011;48506;48.202;16.274;2023-07-13T05:52:15;2.28;;;2.08;;
49123;SDS011;48506;48.202;16.274;2023-07-13T05:54:42;2.33;;;1.77;;
49123;SDS011;48506;48.202;16.274;2023-07-13T05:57:08;3.13;;;1.95;;
49123;SDS011;48506;48.202;16.274;2023-07-13T05:59:35;8.98;;;2.30;;
49123;SDS011;48506;48.202;16.274;2023-07-13T06:02:01;6.70;;;2.20;;
49123;SDS011;48506;48.202;16.274;2023-07-13T06:04:27;7.25;;;2.65;;
49123;SDS011;48506;48.202;16.274;2023-07-13T06:06:53;5.93;;;2.90;;
49123;SDS011;48506;48.202;16.274;2023-07-13T06:09:19;3.15;;;2.13;;
49123;SDS011;48506;48.202;16.274;2023-07-13T06:11:45;1.98;;;1.77;;
49123;SDS011;48506;48.202;16.274;2023-07-13T06:14:11;4.07;;;2.65;;
49123;SDS011;48506;48.202;16.274;2023-07-13T06:16:37;2.58;;;2.10;;
49123;SDS011;48506;48.202;16.274;2023-07-13T06:19:03;2.83;;;2.15;;
49123;SDS011;48506;48.202;16.274;2023-07-13T06:21:29;3.03;;;2.25;;
49123;SDS011;48506;48.202;16.274;2023-07-13T06:23:55;4.07;;;2.20;;
49123;SDS011;48506;48.202;16.274;2023-07-13T06:26:21;2.70;;;2.03;;
49123;SDS011;48506;48.202;16.274;2023-07-13T06:28:47;2.70;;;1.88;;
49123;SDS011;48506;48.202;16.274;2023-07-13T06:31:13;2.95;;;2.38;;
49123;SDS011;48506;48.202;16.274;2023-07-13T06:33:40;4.80;;;2.22;;
49123;SDS011;48506;48.202;16.274;2023-07-13T06:36:06;3.47;;;1.63;;
49123;SDS011;48506;48.202;16.274;2023-07-13T06:38:34;7.38;;;2.30;;
49123;SDS011;48506;48.202;16.274;2023-07-13T06:41:00;3.65;;;2.00;;
49123;SDS011;48506;48.202;16.274;2023-07-13T06:43:26;3.45;;;1.90;;
49123;SDS011;48506;48.202;16.274;2023-07-13T06:45:54;3.45;;;1.83;;
49123;SDS011;48506;48.202;16.274;2023-07-13T06:48:21;1.80;;;1.55;;
49123;SDS011;48506;48.202;16.274;2023-07-13T06:50:48;2.65;;;1.83;;
49123;SDS011;48506;48.202;16.274;2023-07-13T06:53:16;3.63;;;2.25;;
49123;SDS011;48506;48.202;16.274;2023-07-13T06:55:44;2.03;;;1.63;;
49123;SDS011;48506;48.202;16.274;2023-07-13T06:58:11;2.45;;;1.63;;
49123;SDS011;48506;48.202;16.274;2023-07-13T07:00:38;6.22;;;1.48;;
49123;SDS011;48506;48.202;16.274;2023-07-13T07:03:05;3.60;;;1.95;;
49123;SDS011;48506;48.202;16.274;2023-07-13T07:05:31;3.13;;;1.58;;
49123;SDS011;48506;48.202;16.274;2023-07-13T07:07:58;1.83;;;1.58;;
49123;SDS011;48506;48.202;16.274;2023-07-13T07:10:24;3.80;;;1.65;;
49123;SDS011;48506;48.202;16.274;2023-07-13T07:12:50;2.35;;;1.80;;
49123;SDS011;48506;48.202;16.274;2023-07-13T07:15:16;3.47;;;1.70;;
49123;SDS011;48506;48.202;16.274;2023-07-13T07:17:43;3.17;;;1.58;;
49123;SDS011;48506;48.202;16.274;2023-07-13T07:20:10;1.80;;;1.50;;
49123;SDS011;48506;48.202;16.274;2023-07-13T07:22:36;4.20;;;1.70;;
49123;SDS011;48506;48.202;16.274;2023-07-13T07:25:02;2.80;;;1.55;;
49123;SDS011;48506;48.202;16.274;2023-07-13T07:27:28;3.25;;;1.95;;
49123;SDS011;48506;48.202;16.274;2023-07-13T07:29:55;4.32;;;1.65;;
49123;SDS011;48506;48.202;16.274;2023-07-13T07:32:22;1.98;;;1.60;;
49123;SDS011;48506;48.202;16.274;2023-07-13T07:34:49;2.20;;;1.63;;
49123;SDS011;48506;48.202;16.274;2023-07-13T07:37:15;2.28;;;1.33;;
49123;SDS011;48506;48.202;16.274;2023-07-13T07:39:42;4.30;;;1.75;;
49123;SDS011;48506;48.202;16.274;2023-07-13T07:42:08;3.40;;;1.52;;
49123;SDS011;48506;48.202;16.274;2023-07-13T07:44:34;3.15;;;2.05;;
49123;SDS011;48506;48.202;16.274;2023-07-13T07:47:00;1.77;;;1.52;;
49123;SDS011;48506;48.202;16.274;2023-07-13T07:49:27;1.80;;;1.63;;
49123;SDS011;48506;48.202;16.274;2023-07-13T07:51:53;2.97;;;1.50;;
49123;SDS011;48506;48.202;16.274;2023-07-13T07:54:19;2.03;;;1.40;;
49123;SDS011;48506;48.202;16.274;2023-07-13T07:56:44;1.58;;;1.27;;
49123;SDS011;48506;48.202;16.274;2023-07-13T07:59:10;1.33;;;1.00;;
49123;SDS011;48506;48.202;16.274;2023-07-13T08:01:37;2.17;;;1.38;;
49123;SDS011;48506;48.202;16.274;2023-07-13T08:04:06;2.78;;;1.10;;
49123;SDS011;48506;48.202;16.274;2023-07-13T08:06:32;1.33;;;1.23;;
49123;SDS011;48506;48.202;16.274;2023-07-13T08:08:59;2.50;;;1.65;;
49123;SDS011;48506;48.202;16.274;2023-07-13T08:11:25;3.05;;;1.27;;
49123;SDS011;48506;48.202;16.274;2023-07-13T08:13:52;2.38;;;2.10;;
49123;SDS011;48506;48.202;16.274;2023-07-13T08:16:17;2.08;;;1.40;;
49123;SDS011;48506;48.202;16.274;2023-07-13T08:18:44;2.72;;;1.48;;
49123;SDS011;48506;48.202;16.274;2023-07-13T08:21:10;3.35;;;1.45;;
49123;SDS011;48506;48.202;16.274;2023-07-13T08:23:36;1.83;;;1.30;;
49123;SDS011;48506;48.202;16.274;2023-07-13T08:26:02;2.83;;;1.90;;
49123;SDS011;48506;48.202;16.274;2023-07-13T08:28:29;1.80;;;1.45;;
49123;SDS011;48506;48.202;16.274;2023-07-13T08:31:01;2.30;;;1.70;;
49123;SDS011;48506;48.202;16.274;2023-07-13T08:33:28;3.55;;;1.70;;
49123;SDS011;48506;48.202;16.274;2023-07-13T08:35:54;1.60;;;1.50;;
49123;SDS011;48506;48.202;16.274;2023-07-13T08:38:20;1.90;;;1.60;;
49123;SDS011;48506;48.202;16.274;2023-07-13T08:40:51;3.75;;;2.13;;
49123;SDS011;48506;48.202;16.274;2023-07-13T08:43:20;3.15;;;1.70;;
49123;SDS011;48506;48.202;16.274;2023-07-13T08:46:05;7.15;;;2.10;;
49123;SDS011;48506;48.202;16.274;2023-07-13T08:48:56;3.10;;;1.70;;
49123;SDS011;48506;48.202;16.274;2023-07-13T08:52:10;3.15;;;1.60;;
49123;SDS011;48506;48.202;16.274;2023-07-13T08:54:39;2.67;;;1.75;;
49123;SDS011;48506;48.202;16.274;2023-07-13T08:57:12;3.22;;;1.85;;
49123;SDS011;48506;48.202;16.274;2023-07-13T08:59:40;3.00;;;1.98;;
49123;SDS011;48506;48.202;16.274;2023-07-13T09:04:44;3.53;;;2.47;;
49123;SDS011;48506;48.202;16.274;2023-07-13T09:17:51;6.45;;;2.35;;
49123;SDS011;48506;48.202;16.274;2023-07-13T09:20:25;3.13;;;2.67;;
49123;SDS011;48506;48.202;16.274;2023-07-13T09:23:02;3.08;;;2.60;;
49123;SDS011;48506;48.202;16.274;2023-07-13T09:25:33;5.07;;;2.92;;
49123;SDS011;48506;48.202;16.274;2023-07-13T09:28:02;4.68;;;2.60;;
49123;SDS011;48506;48.202;16.274;2023-07-13T09:30:45;3.45;;;2.92;;
49123;SDS011;48506;48.202;16.274;2023-07-13T09:33:20;6.18;;;2.50;;
49123;SDS011;48506;48.202;16.274;2023-07-13T09:35:48;3.13;;;2.65;;
49123;SDS011;48506;48.202;16.274;2023-07-13T09:38:17;4.68;;;3.10;;
49123;SDS011;48506;48.202;16.274;2023-07-13T09:40:58;4.93;;;3.03;;
49123;SDS011;48506;48.202;16.274;2023-07-13T09:43:28;3.38;;;3.08;;
49123;SDS011;48506;48.202;16.274;2023-07-13T09:45:55;5.22;;;2.83;;
49123;SDS011;48506;48.202;16.274;2023-07-13T09:48:21;5.75;;;3.65;;
49123;SDS011;48506;48.202;16.274;2023-07-13T09:50:49;3.15;;;2.53;;
49123;SDS011;48506;48.202;16.274;2023-07-13T09:53:22;2.65;;;2.45;;
49123;SDS011;48506;48.202;16.274;2023-07-13T09:55:48;4.75;;;2.78;;
49123;SDS011;48506;48.202;16.274;2023-07-13T09:58:16;5.25;;;3.10;;
49123;SDS011;48506;48.202;16.274;2023-07-13T10:00:58;3.22;;;2.92;;
49123;SDS011;48506;48.202;16.274;2023-07-13T10:03:32;5.03;;;3.63;;
49123;SDS011;48506;48.202;16.274;2023-07-13T10:06:12;4.05;;;3.17;;
49123;SDS011;48506;48.202;16.274;2023-07-13T10:08:41;3.50;;;3.20;;
49123;SDS011;48506;48.202;16.274;2023-07-13T10:11:11;3.55;;;3.15;;
49123;SDS011;48506;48.202;16.274;2023-07-13T10:13:54;5.38;;;3.13;;
49123;SDS011;48506;48.202;16.274;2023-07-13T10:16:26;4.28;;;3.83;;
49123;SDS011;48506;48.202;16.274;2023-07-13T10:18:59;4.15;;;2.95;;
49123;SDS011;48506;48.202;16.274;2023-07-13T10:21:35;5.45;;;3.60;;
49123;SDS011;48506;48.202;16.274;2023-07-13T10:24:15;4.50;;;2.90;;
49123;SDS011;48506;48.202;16.274;2023-07-13T10:26:51;2.92;;;2.63;;
49123;SDS011;48506;48.202;16.274;2023-07-13T10:29:23;4.68;;;2.58;;
49123;SDS011;48506;48.202;16.274;2023-07-13T10:31:54;3.08;;;2.67;;
49123;SDS011;48506;48.202;16.274;2023-07-13T10:34:22;5.10;;;3.22;;
49123;SDS011;48506;48.202;16.274;2023-07-13T10:36:48;3.47;;;3.17;;
49123;SDS011;48506;48.202;16.274;2023-07-13T10:39:18;3.55;;;2.80;;
49123;SDS011;48506;48.202;16.274;2023-07-13T10:41:50;3.17;;;2.78;;
49123;SDS011;48506;48.202;16.274;2023-07-13T10:44:26;4.65;;;3.10;;
49123;SDS011;48506;48.202;16.274;2023-07-13T10:46:55;4.00;;;2.95;;
49123;SDS011;48506;48.202;16.274;2023-07-13T10:49:29;4.10;;;3.70;;
49123;SDS011;48506;48.202;16.274;2023-07-13T10:51:57;3.47;;;3.13;;
49123;SDS011;48506;48.202;16.274;2023-07-13T10:54:27;4.63;;;2.80;;
49123;SDS011;48506;48.202;16.274;2023-07-13T10:57:21;7.03;;;2.95;;
49123;SDS011;48506;48.202;16.274;2023-07-13T11:02:40;4.10;;;2.88;;
49123;SDS011;48506;48.202;16.274;2023-07-13T11:05:27;2.67;;;2.47;;
49123;SDS011;48506;48.202;16.274;2023-07-13T11:18:46;3.80;;;3.13;;
49123;SDS011;48506;48.202;16.274;2023-07-13T11:21:21;4.03;;;2.80;;
49123;SDS011;48506;48.202;16.274;2023-07-13T11:23:52;4.90;;;3.35;;
49123;SDS011;48506;48.202;16.274;2023-07-13T11:29:33;3.80;;;2.72;;
49123;SDS011;48506;48.202;16.274;2023-07-13T11:32:21;5.63;;;2.40;;
49123;SDS011;48506;48.202;16.274;2023-07-13T11:34:52;3.23;;;2.93;;
49123;SDS011;48506;48.202;16.274;2023-07-13T11:37:20;4.18;;;2.85;;
49123;SDS011;48506;48.202;16.274;2023-07-13T11:39:48;5.32;;;2.80;;
49123;SDS011;48506;48.202;16.274;2023-07-13T11:42:17;3.15;;;2.85;;
49123;SDS011;48506;48.202;16.274;2023-07-13T11:44:47;3.50;;;2.70;;
49123;SDS011;48506;48.202;16.274;2023-07-13T11:47:20;3.75;;;2.40;;
49123;SDS011;48506;48.202;16.274;2023-07-13T11:49:50;4.40;;;3.10;;
49123;SDS011;48506;48.202;16.274;2023-07-13T11:52:22;3.28;;;2.33;;
49123;SDS011;48506;48.202;16.274;2023-07-13T11:54:56;4.57;;;2.53;;
49123;SDS011;48506;48.202;16.274;2023-07-13T11:57:27;4.82;;;2.55;;
49123;SDS011;48506;48.202;16.274;2023-07-13T11:59:54;2.53;;;2.05;;
49123;SDS011;48506;48.202;16.274;2023-07-13T12:02:34;2.42;;;2.22;;
49123;SDS011;48506;48.202;16.274;2023-07-13T12:05:04;3.22;;;2.47;;
49123;SDS011;48506;48.202;16.274;2023-07-13T12:07:32;3.10;;;2.33;;
49123;SDS011;48506;48.202;16.274;2023-07-13T12:12:58;2.60;;;2.05;;
49123;SDS011;48506;48.202;16.274;2023-07-13T12:15:41;3.88;;;2.38;;
49123;SDS011;48506;48.202;16.274;2023-07-13T12:18:15;6.22;;;2.83;;
49123;SDS011;48506;48.202;16.274;2023-07-13T12:20:44;5.00;;;2.53;;
49123;SDS011;48506;48.202;16.274;2023-07-13T12:23:25;4.03;;;2.65;;
49123;SDS011;48506;48.202;16.274;2023-07-13T12:25:51;3.63;;;2.58;;
49123;SDS011;48506;48.202;16.274;2023-07-13T12:28:22;2.70;;;2.50;;
49123;SDS011;48506;48.202;16.274;2023-07-13T12:31:00;3.95;;;2.72;;
49123;SDS011;48506;48.202;16.274;2023-07-13T12:33:30;3.88;;;2.40;;
49123;SDS011;48506;48.202;16.274;2023-07-13T12:36:00;2.95;;;2.65;;
49123;SDS011;48506;48.202;16.274;2023-07-13T12:38:30;3.85;;;2.63;;
49123;SDS011;48506;48.202;16.274;2023-07-13T12:40:57;6.88;;;2.30;;
49123;SDS011;48506;48.202;16.274;2023-07-13T12:43:23;4.47;;;2.65;;
49123;SDS011;48506;48.202;16.274;2023-07-13T12:48:28;2.60;;;2.30;;
49123;SDS011;48506;48.202;16.274;2023-07-13T12:50:55;3.90;;;2.72;;
49123;SDS011;48506;48.202;16.274;2023-07-13T12:53:29;3.42;;;2.50;;
49123;SDS011;48506;48.202;16.274;2023-07-13T12:56:00;4.50;;;2.28;;
49123;SDS011;48506;48.202;16.274;2023-07-13T12:58:30;4.10;;;2.42;;
49123;SDS011;48506;48.202;16.274;2023-07-13T13:01:01;5.50;;;2.50;;
49123;SDS011;48506;48.202;16.274;2023-07-13T13:03:33;4.32;;;2.83;;
49123;SDS011;48506;48.202;16.274;2023-07-13T13:08:35;2.60;;;2.40;;
49123;SDS011;48506;48.202;16.274;2023-07-13T13:13:28;4.18;;;2.40;;
49123;SDS011;48506;48.202;16.274;2023-07-13T13:15:55;4.82;;;2.60;;
49123;SDS011;48506;48.202;16.274;2023-07-13T13:18:22;3.53;;;2.50;;
49123;SDS011;48506;48.202;16.274;2023-07-13T13:20:50;2.58;;;2.38;;
49123;SDS011;48506;48.202;16.274;2023-07-13T13:23:18;11.65;;;2.60;;
49123;SDS011;48506;48.202;16.274;2023-07-13T13:25:46;3.33;;;2.47;;
49123;SDS011;48506;48.202;16.274;2023-07-13T13:28:17;4.13;;;2.05;;
49123;SDS011;48506;48.202;16.274;2023-07-13T13:30:46;4.03;;;2.30;;
49123;SDS011;48506;48.202;16.274;2023-07-13T13:33:14;2.53;;;2.17;;
49123;SDS011;48506;48.202;16.274;2023-07-13T13:35:45;3.25;;;2.33;;
49123;SDS011;48506;48.202;16.274;2023-07-13T13:38:12;4.22;;;2.33;;
49123;SDS011;48506;48.202;16.274;2023-07-13T13:40:48;2.85;;;2.20;;
49123;SDS011;48506;48.202;16.274;2023-07-13T13:45:55;3.70;;;2.20;;
49123;SDS011;48506;48.202;16.274;2023-07-13T13:48:31;2.47;;;1.90;;
49123;SDS011;48506;48.202;16.274;2023-07-13T13:50:59;4.82;;;2.20;;
49123;SDS011;48506;48.202;16.274;2023-07-13T13:53:26;3.05;;;1.90;;
49123;SDS011;48506;48.202;16.274;2023-07-13T13:55:53;3.85;;;2.33;;
49123;SDS011;48506;48.202;16.274;2023-07-13T13:58:20;3.47;;;2.67;;
49123;SDS011;48506;48.202;16.274;2023-07-13T14:00:47;3.63;;;2.60;;
49123;SDS011;48506;48.202;16.274;2023-07-13T14:03:15;3.75;;;2.28;;
49123;SDS011;48506;48.202;16.274;2023-07-13T14:05:43;2.88;;;1.98;;
49123;SDS011;48506;48.202;16.274;2023-07-13T14:08:16;2.90;;;2.05;;
49123;SDS011;48506;48.202;16.274;2023-07-13T14:10:45;4.43;;;2.22;;
49123;SDS011;48506;48.202;16.274;2023-07-13T14:13:17;2.55;;;2.10;;
49123;SDS011;48506;48.202;16.274;2023-07-13T14:15:51;2.72;;;2.15;;
49123;SDS011;48506;48.202;16.274;2023-07-13T14:18:19;3.03;;;2.13;;
49123;SDS011;48506;48.202;16.274;2023-07-13T14:20:45;4.38;;;2.58;;
49123;SDS011;48506;48.202;16.274;2023-07-13T14:23:13;3.88;;;2.20;;
49123;SDS011;48506;48.202;16.274;2023-07-13T14:25:42;2.60;;;2.17;;
49123;SDS011;48506;48.202;16.274;2023-07-13T14:28:19;4.63;;;2.00;;
49123;SDS011;48506;48.202;16.274;2023-07-13T14:30:50;2.60;;;2.40;;
49123;SDS011;48506;48.202;16.274;2023-07-13T14:33:17;2.60;;;2.10;;
49123;SDS011;48506;48.202;16.274;2023-07-13T14:35:43;3.70;;;2.00;;
49123;SDS011;48506;48.202;16.274;2023-07-13T14:38:16;2.70;;;2.42;;
49123;SDS011;48506;48.202;16.274;2023-07-13T14:40:45;3.85;;;2.20;;
49123;SDS011;48506;48.202;16.274;2023-07-13T14:43:15;2.63;;;2.42;;
49123;SDS011;48506;48.202;16.274;2023-07-13T14:45:51;6.85;;;2.88;;
49123;SDS011;48506;48.202;16.274;2023-07-13T14:48:23;4.72;;;2.30;;
49123;SDS011;48506;48.202;16.274;2023-07-13T14:50:53;2.78;;;2.38;;
49123;SDS011;48506;48.202;16.274;2023-07-13T14:53:22;2.88;;;2.20;;
49123;SDS011;48506;48.202;16.274;2023-07-13T14:55:50;2.95;;;2.10;;
49123;SDS011;48506;48.202;16.274;2023-07-13T14:58:16;3.97;;;2.15;;
49123;SDS011;48506;48.202;16.274;2023-07-13T15:00:42;3.35;;;2.22;;
49123;SDS011;48506;48.202;16.274;2023-07-13T15:03:17;6.32;;;2.53;;
49123;SDS011;48506;48.202;16.274;2023-07-13T15:05:50;3.95;;;2.28;;
49123;SDS011;48506;48.202;16.274;2023-07-13T15:08:16;2.53;;;2.15;;
49123;SDS011;48506;48.202;16.274;2023-07-13T15:10:42;3.78;;;2.15;;
49123;SDS011;48506;48.202;16.274;2023-07-13T15:13:16;2.88;;;2.13;;
49123;SDS011;48506;48.202;16.274;2023-07-13T15:15:45;3.97;;;2.28;;
49123;SDS011;48506;48.202;16.274;2023-07-13T15:18:14;2.42;;;2.20;;
49123;SDS011;48506;48.202;16.274;2023-07-13T15:20:44;2.85;;;2.60;;
49123;SDS011;48506;48.202;16.274;2023-07-13T15:23:12;4.28;;;2.83;;
49123;SDS011;48506;48.202;16.274;2023-07-13T15:25:40;3.00;;;2.40;;
49123;SDS011;48506;48.202;16.274;2023-07-13T15:28:08;2.35;;;2.00;;
49123;SDS011;48506;48.202;16.274;2023-07-13T15:30:41;4.07;;;3.38;;